sensor_id;sensor_type;location;lat;lon;timestamp;P1;durP1;ratioP1;P2;durP2;ratioP2
42840;SDS011;28491;46.898;7.660;2023-07-29T00:00:26;5.65;;;3.30;;
42840;SDS011;28491;46.898;7.660;2023-07-29T00:02:53;4.93;;;3.15;;
42840;SDS011;28491;46.898;7.660;2023-07-29T00:05:18;5.10;;;3.08;;
42840;SDS011;28491;46.898;7.660;2023-07-29T00:07:44;6.10;;;3.17;;
42840;SDS011;28491;46.898;7.660;2023-07-29T00:10:09;6.15;;;3.90;;
42840;SDS011;28491;46.898;7.660;2023-07-29T00:12:35;4.68;;;3.33;;
42840;SDS011;28491;46.898;7.660;2023-07-29T00:15:00;5.00;;;3.03;;
42840;SDS011;28491;46.898;7.660;2023-07-29T00:17:26;6.10;;;3.10;;
42840;SDS011;28491;46.898;7.660;2023-07-29T00:19:51;7.43;;;3.42;;
42840;SDS011;28491;46.898;7.660;2023-07-29T00:22:17;7.55;;;3.65;;
42840;SDS011;28491;46.898;7.660;2023-07-29T00:24:42;5.53;;;3.47;;
42840;SDS011;28491;46.898;7.660;2023-07-29T00:27:08;5.95;;;3.90;;
42840;SDS011;28491;46.898;7.660;2023-07-29T00:29:34;6.15;;;3.80;;
42840;SDS011;28491;46.898;7.660;2023-07-29T00:31:59;6.90;;;3.58;;
42840;SDS011;28491;46.898;7.660;2023-07-29T00:34:25;4.75;;;2.92;;
42840;SDS011;28491;46.898;7.660;2023-07-29T00:36:50;4.93;;;3.20;;
42840;SDS011;28491;46.898;7.660;2023-07-29T00:39:16;5.25;;;3.60;;
42840;SDS011;28491;46.898;7.660;2023-07-29T00:41:41;5.07;;;3.20;;
42840;SDS011;28491;46.898;7.660;2023-07-29T00:44:07;4.53;;;2.95;;
42840;SDS011;28491;46.898;7.660;2023-07-29T00:46:33;6.50;;;3.42;;
42840;SDS011;28491;46.898;7.660;2023-07-29T00:49:00;6.65;;;3.17;;
42840;SDS011;28491;46.898;7.660;2023-07-29T00:51:26;5.68;;;3.45;;
42840;SDS011;28491;46.898;7.660;2023-07-29T00:53:52;6.82;;;3.65;;
42840;SDS011;28491;46.898;7.660;2023-07-29T00:56:18;6.78;;;3.60;;
42840;SDS011;28491;46.898;7.660;2023-07-29T00:58:43;10.50;;;3.30;;
42840;SDS011;28491;46.898;7.660;2023-07-29T01:01:09;5.78;;;3.15;;
42840;SDS011;28491;46.898;7.660;2023-07-29T01:03:35;4.78;;;3.38;;
42840;SDS011;28491;46.898;7.660;2023-07-29T01:06:08;5.22;;;3.33;;
42840;SDS011;28491;46.898;7.660;2023-07-29T01:08:52;7.72;;;4.00;;
42840;SDS011;28491;46.898;7.660;2023-07-29T01:17:00;5.72;;;3.25;;
42840;SDS011;28491;46.898;7.660;2023-07-29T01:19:42;4.80;;;3.30;;
42840;SDS011;28491;46.898;7.660;2023-07-29T01:22:16;7.18;;;3.30;;
42840;SDS011;28491;46.898;7.660;2023-07-29T01:24:42;13.48;;;5.22;;
42840;SDS011;28491;46.898;7.660;2023-07-29T01:27:08;7.55;;;4.05;;
42840;SDS011;28491;46.898;7.660;2023-07-29T01:29:33;8.07;;;4.68;;
42840;SDS011;28491;46.898;7.660;2023-07-29T01:32:01;11.73;;;3.80;;
42840;SDS011;28491;46.898;7.660;2023-07-29T01:34:35;6.10;;;3.03;;
42840;SDS011;28491;46.898;7.660;2023-07-29T01:37:10;8.02;;;4.28;;
42840;SDS011;28491;46.898;7.660;2023-07-29T01:39:40;7.30;;;3.53;;
42840;SDS011;28491;46.898;7.660;2023-07-29T01:42:06;5.13;;;3.88;;
42840;SDS011;28491;46.898;7.660;2023-07-29T01:44:32;5.35;;;2.90;;
42840;SDS011;28491;46.898;7.660;2023-07-29T01:46:59;5.45;;;3.63;;
42840;SDS011;28491;46.898;7.660;2023-07-29T01:49:25;7.70;;;3.90;;
42840;SDS011;28491;46.898;7.660;2023-07-29T01:51:50;6.07;;;3.90;;
42840;SDS011;28491;46.898;7.660;2023-07-29T01:54:16;9.48;;;4.38;;
42840;SDS011;28491;46.898;7.660;2023-07-29T01:56:41;11.73;;;6.40;;
42840;SDS011;28491;46.898;7.660;2023-07-29T01:59:07;10.40;;;5.38;;
42840;SDS011;28491;46.898;7.660;2023-07-29T02:01:32;11.80;;;4.90;;
42840;SDS011;28491;46.898;7.660;2023-07-29T02:03:58;9.52;;;4.75;;
42840;SDS011;28491;46.898;7.660;2023-07-29T02:06:24;7.70;;;4.13;;
42840;SDS011;28491;46.898;7.660;2023-07-29T02:08:50;8.73;;;4.88;;
42840;SDS011;28491;46.898;7.660;2023-07-29T02:11:16;9.07;;;4.70;;
42840;SDS011;28491;46.898;7.660;2023-07-29T02:13:41;9.15;;;5.32;;
42840;SDS011;28491;46.898;7.660;2023-07-29T02:16:07;9.40;;;5.13;;
42840;SDS011;28491;46.898;7.660;2023-07-29T02:18:33;10.27;;;4.55;;
42840;SDS011;28491;46.898;7.660;2023-07-29T02:20:58;5.57;;;3.63;;
42840;SDS011;28491;46.898;7.660;2023-07-29T02:23:24;8.65;;;4.35;;
42840;SDS011;28491;46.898;7.660;2023-07-29T02:25:49;8.57;;;5.15;;
42840;SDS011;28491;46.898;7.660;2023-07-29T02:28:15;6.57;;;3.92;;
42840;SDS011;28491;46.898;7.660;2023-07-29T02:30:41;8.35;;;4.75;;
42840;SDS011;28491;46.898;7.660;2023-07-29T02:33:09;6.85;;;4.05;;
42840;SDS011;28491;46.898;7.660;2023-07-29T02:35:35;7.10;;;3.38;;
42840;SDS011;28491;46.898;7.660;2023-07-29T02:38:00;7.45;;;4.20;;
42840;SDS011;28491;46.898;7.660;2023-07-29T02:40:26;6.25;;;3.60;;
42840;SDS011;28491;46.898;7.660;2023-07-29T02:42:51;7.32;;;4.20;;
42840;SDS011;28491;46.898;7.660;2023-07-29T02:45:18;7.22;;;3.85;;
42840;SDS011;28491;46.898;7.660;2023-07-29T02:47:43;5.28;;;3.78;;
42840;SDS011;28491;46.898;7.660;2023-07-29T02:50:09;6.38;;;3.40;;
42840;SDS011;28491;46.898;7.660;2023-07-29T02:52:34;7.63;;;3.80;;
42840;SDS011;28491;46.898;7.660;2023-07-29T02:55:00;6.28;;;3.13;;
42840;SDS011;28491;46.898;7.660;2023-07-29T02:57:25;13.68;;;5.07;;
42840;SDS011;28491;46.898;7.660;2023-07-29T02:59:51;7.05;;;3.88;;
42840;SDS011;28491;46.898;7.660;2023-07-29T03:02:16;10.10;;;4.13;;
42840;SDS011;28491;46.898;7.660;2023-07-29T03:04:42;6.63;;;3.83;;
42840;SDS011;28491;46.898;7.660;2023-07-29T03:07:07;7.25;;;3.90;;
42840;SDS011;28491;46.898;7.660;2023-07-29T03:09:33;7.30;;;4.07;;
42840;SDS011;28491;46.898;7.660;2023-07-29T03:11:59;8.30;;;4.57;;
42840;SDS011;28491;46.898;7.660;2023-07-29T03:14:24;7.13;;;3.72;;
42840;SDS011;28491;46.898;7.660;2023-07-29T03:16:50;8.57;;;4.43;;
42840;SDS011;28491;46.898;7.660;2023-07-29T03:19:16;5.18;;;3.50;;
42840;SDS011;28491;46.898;7.660;2023-07-29T03:21:41;5.10;;;3.65;;
42840;SDS011;28491;46.898;7.660;2023-07-29T03:24:07;7.15;;;3.95;;
42840;SDS011;28491;46.898;7.660;2023-07-29T03:26:33;8.80;;;3.85;;
42840;SDS011;28491;46.898;7.660;2023-07-29T03:28:58;6.00;;;3.55;;
42840;SDS011;28491;46.898;7.660;2023-07-29T03:31:24;6.78;;;4.22;;
42840;SDS011;28491;46.898;7.660;2023-07-29T03:33:49;6.35;;;4.18;;
42840;SDS011;28491;46.898;7.660;2023-07-29T03:36:15;6.47;;;4.40;;
42840;SDS011;28491;46.898;7.660;2023-07-29T03:38:40;8.70;;;4.93;;
42840;SDS011;28491;46.898;7.660;2023-07-29T03:41:07;8.35;;;3.75;;
42840;SDS011;28491;46.898;7.660;2023-07-29T03:43:34;7.93;;;4.05;;
42840;SDS011;28491;46.898;7.660;2023-07-29T03:45:59;5.60;;;3.70;;
42840;SDS011;28491;46.898;7.660;2023-07-29T03:48:25;6.63;;;3.90;;
42840;SDS011;28491;46.898;7.660;2023-07-29T03:50:51;5.38;;;3.72;;
42840;SDS011;28491;46.898;7.660;2023-07-29T03:53:16;6.32;;;3.63;;
42840;SDS011;28491;46.898;7.660;2023-07-29T03:55:42;8.23;;;4.38;;
42840;SDS011;28491;46.898;7.660;2023-07-29T03:58:07;5.57;;;3.70;;
42840;SDS011;28491;46.898;7.660;2023-07-29T04:00:33;5.30;;;3.50;;
42840;SDS011;28491;46.898;7.660;2023-07-29T04:02:58;8.13;;;3.97;;
42840;SDS011;28491;46.898;7.660;2023-07-29T04:05:24;5.55;;;3.78;;
42840;SDS011;28491;46.898;7.660;2023-07-29T04:07:49;6.07;;;4.10;;
42840;SDS011;28491;46.898;7.660;2023-07-29T04:10:15;6.00;;;3.83;;
42840;SDS011;28491;46.898;7.660;2023-07-29T04:12:41;5.40;;;3.85;;
42840;SDS011;28491;46.898;7.660;2023-07-29T04:15:08;9.32;;;3.67;;
42840;SDS011;28491;46.898;7.660;2023-07-29T04:17:33;9.93;;;3.78;;
42840;SDS011;28491;46.898;7.660;2023-07-29T04:19:59;9.77;;;3.80;;
42840;SDS011;28491;46.898;7.660;2023-07-29T04:22:24;6.28;;;3.85;;
42840;SDS011;28491;46.898;7.660;2023-07-29T04:24:50;7.05;;;4.57;;
42840;SDS011;28491;46.898;7.660;2023-07-29T04:27:16;5.72;;;3.30;;
42840;SDS011;28491;46.898;7.660;2023-07-29T04:29:41;7.03;;;3.88;;
42840;SDS011;28491;46.898;7.660;2023-07-29T04:32:07;6.57;;;3.78;;
42840;SDS011;28491;46.898;7.660;2023-07-29T04:34:32;5.50;;;3.55;;
42840;SDS011;28491;46.898;7.660;2023-07-29T04:36:58;5.68;;;4.03;;
42840;SDS011;28491;46.898;7.660;2023-07-29T04:39:23;7.00;;;3.95;;
42840;SDS011;28491;46.898;7.660;2023-07-29T04:41:49;6.75;;;3.78;;
42840;SDS011;28491;46.898;7.660;2023-07-29T04:44:14;7.10;;;4.13;;
42840;SDS011;28491;46.898;7.660;2023-07-29T04:46:40;9.05;;;3.30;;
42840;SDS011;28491;46.898;7.660;2023-07-29T04:49:06;5.80;;;3.88;;
42840;SDS011;28491;46.898;7.660;2023-07-29T04:51:31;6.53;;;4.35;;
42840;SDS011;28491;46.898;7.660;2023-07-29T04:53:57;10.65;;;4.45;;
42840;SDS011;28491;46.898;7.660;2023-07-29T04:56:24;10.35;;;4.57;;
42840;SDS011;28491;46.898;7.660;2023-07-29T04:58:50;7.60;;;4.25;;
42840;SDS011;28491;46.898;7.660;2023-07-29T05:01:16;5.93;;;4.03;;
42840;SDS011;28491;46.898;7.660;2023-07-29T05:03:41;5.90;;;4.15;;
42840;SDS011;28491;46.898;7.660;2023-07-29T05:06:07;7.63;;;3.88;;
42840;SDS011;28491;46.898;7.660;2023-07-29T05:08:33;8.18;;;3.75;;
42840;SDS011;28491;46.898;7.660;2023-07-29T05:10:58;5.50;;;3.63;;
42840;SDS011;28491;46.898;7.660;2023-07-29T05:13:24;5.57;;;3.80;;
42840;SDS011;28491;46.898;7.660;2023-07-29T05:15:50;5.65;;;3.40;;
42840;SDS011;28491;46.898;7.660;2023-07-29T05:18:16;7.57;;;4.10;;
42840;SDS011;28491;46.898;7.660;2023-07-29T05:20:41;7.65;;;4.00;;
42840;SDS011;28491;46.898;7.660;2023-07-29T05:23:07;6.53;;;4.88;;
42840;SDS011;28491;46.898;7.660;2023-07-29T05:25:33;5.97;;;3.80;;
42840;SDS011;28491;46.898;7.660;2023-07-29T05:28:02;6.43;;;4.28;;
42840;SDS011;28491;46.898;7.660;2023-07-29T05:30:28;5.72;;;4.05;;
42840;SDS011;28491;46.898;7.660;2023-07-29T05:32:56;6.77;;;4.20;;
42840;SDS011;28491;46.898;7.660;2023-07-29T05:35:22;5.45;;;4.00;;
42840;SDS011;28491;46.898;7.660;2023-07-29T05:37:48;6.10;;;3.97;;
42840;SDS011;28491;46.898;7.660;2023-07-29T05:40:14;6.57;;;4.88;;
42840;SDS011;28491;46.898;7.660;2023-07-29T05:42:39;7.13;;;4.32;;
42840;SDS011;28491;46.898;7.660;2023-07-29T05:45:05;11.00;;;4.10;;
42840;SDS011;28491;46.898;7.660;2023-07-29T05:47:31;7.82;;;4.38;;
42840;SDS011;28491;46.898;7.660;2023-07-29T05:49:57;6.97;;;3.83;;
42840;SDS011;28491;46.898;7.660;2023-07-29T05:52:22;6.53;;;4.57;;
42840;SDS011;28491;46.898;7.660;2023-07-29T05:54:48;5.18;;;3.78;;
42840;SDS011;28491;46.898;7.660;2023-07-29T05:57:14;8.57;;;4.28;;
42840;SDS011;28491;46.898;7.660;2023-07-29T05:59:39;7.13;;;4.32;;
42840;SDS011;28491;46.898;7.660;2023-07-29T06:02:05;5.68;;;4.22;;
42840;SDS011;28491;46.898;7.660;2023-07-29T06:04:31;7.05;;;4.25;;
42840;SDS011;28491;46.898;7.660;2023-07-29T06:06:56;6.00;;;3.78;;
42840;SDS011;28491;46.898;7.660;2023-07-29T06:09:22;8.75;;;4.30;;
42840;SDS011;28491;46.898;7.660;2023-07-29T06:11:48;7.47;;;3.67;;
42840;SDS011;28491;46.898;7.660;2023-07-29T06:14:14;7.38;;;4.25;;
42840;SDS011;28491;46.898;7.660;2023-07-29T06:16:39;8.40;;;4.63;;
42840;SDS011;28491;46.898;7.660;2023-07-29T06:19:05;7.82;;;4.25;;
42840;SDS011;28491;46.898;7.660;2023-07-29T06:21:33;6.68;;;4.05;;
42840;SDS011;28491;46.898;7.660;2023-07-29T06:23:59;4.43;;;3.20;;
42840;SDS011;28491;46.898;7.660;2023-07-29T06:26:24;6.13;;;4.25;;
42840;SDS011;28491;46.898;7.660;2023-07-29T06:28:50;7.57;;;4.70;;
42840;SDS011;28491;46.898;7.660;2023-07-29T06:31:16;5.93;;;3.80;;
42840;SDS011;28491;46.898;7.660;2023-07-29T06:33:41;5.55;;;4.03;;
42840;SDS011;28491;46.898;7.660;2023-07-29T06:36:07;5.57;;;3.75;;
42840;SDS011;28491;46.898;7.660;2023-07-29T06:38:33;7.97;;;4.03;;
42840;SDS011;28491;46.898;7.660;2023-07-29T06:40:58;6.35;;;4.05;;
42840;SDS011;28491;46.898;7.660;2023-07-29T06:43:24;5.15;;;3.97;;
42840;SDS011;28491;46.898;7.660;2023-07-29T06:45:49;6.90;;;3.60;;
42840;SDS011;28491;46.898;7.660;2023-07-29T06:48:15;5.10;;;3.47;;
42840;SDS011;28491;46.898;7.660;2023-07-29T06:50:41;5.93;;;4.03;;
42840;SDS011;28491;46.898;7.660;2023-07-29T06:53:09;7.28;;;3.75;;
42840;SDS011;28491;46.898;7.660;2023-07-29T06:55:34;4.80;;;3.63;;
42840;SDS011;28491;46.898;7.660;2023-07-29T06:58:00;6.38;;;4.30;;
42840;SDS011;28491;46.898;7.660;2023-07-29T07:00:25;5.57;;;3.90;;
42840;SDS011;28491;46.898;7.660;2023-07-29T07:02:51;7.53;;;3.70;;
42840;SDS011;28491;46.898;7.660;2023-07-29T07:05:16;5.78;;;4.20;;
42840;SDS011;28491;46.898;7.660;2023-07-29T07:07:42;5.43;;;3.47;;
42840;SDS011;28491;46.898;7.660;2023-07-29T07:10:07;5.70;;;4.07;;
42840;SDS011;28491;46.898;7.660;2023-07-29T07:12:33;7.22;;;4.35;;
42840;SDS011;28491;46.898;7.660;2023-07-29T07:15:00;5.10;;;3.53;;
42840;SDS011;28491;46.898;7.660;2023-07-29T07:17:26;7.20;;;4.22;;
42840;SDS011;28491;46.898;7.660;2023-07-29T07:19:51;6.00;;;4.10;;
42840;SDS011;28491;46.898;7.660;2023-07-29T07:22:17;5.70;;;3.90;;
42840;SDS011;28491;46.898;7.660;2023-07-29T07:24:42;5.55;;;3.67;;
42840;SDS011;28491;46.898;7.660;2023-07-29T07:27:09;5.40;;;3.97;;
42840;SDS011;28491;46.898;7.660;2023-07-29T07:29:34;5.03;;;3.42;;
42840;SDS011;28491;46.898;7.660;2023-07-29T07:32:00;6.53;;;4.30;;
42840;SDS011;28491;46.898;7.660;2023-07-29T07:34:25;5.47;;;3.55;;
42840;SDS011;28491;46.898;7.660;2023-07-29T07:36:51;5.80;;;3.67;;
42840;SDS011;28491;46.898;7.660;2023-07-29T07:39:17;5.10;;;3.50;;
42840;SDS011;28491;46.898;7.660;2023-07-29T07:41:42;6.55;;;4.20;;
42840;SDS011;28491;46.898;7.660;2023-07-29T07:44:09;5.78;;;3.92;;
42840;SDS011;28491;46.898;7.660;2023-07-29T07:46:36;7.35;;;4.55;;
42840;SDS011;28491;46.898;7.660;2023-07-29T07:49:01;8.50;;;4.25;;
42840;SDS011;28491;46.898;7.660;2023-07-29T07:51:27;5.95;;;4.00;;
42840;SDS011;28491;46.898;7.660;2023-07-29T07:53:52;6.53;;;4.05;;
42840;SDS011;28491;46.898;7.660;2023-07-29T07:56:18;12.85;;;4.53;;
42840;SDS011;28491;46.898;7.660;2023-07-29T07:58:43;6.93;;;3.88;;
42840;SDS011;28491;46.898;7.660;2023-07-29T08:01:09;7.68;;;3.72;;
42840;SDS011;28491;46.898;7.660;2023-07-29T08:03:35;6.25;;;3.72;;
42840;SDS011;28491;46.898;7.660;2023-07-29T08:06:00;5.38;;;3.88;;
42840;SDS011;28491;46.898;7.660;2023-07-29T08:08:26;4.95;;;3.78;;
42840;SDS011;28491;46.898;7.660;2023-07-29T08:10:53;6.03;;;3.85;;
42840;SDS011;28491;46.898;7.660;2023-07-29T08:13:19;5.57;;;4.30;;
42840;SDS011;28491;46.898;7.660;2023-07-29T08:15:47;7.03;;;4.13;;
42840;SDS011;28491;46.898;7.660;2023-07-29T08:18:13;5.22;;;3.45;;
42840;SDS011;28491;46.898;7.660;2023-07-29T08:20:38;5.50;;;3.63;;
42840;SDS011;28491;46.898;7.660;2023-07-29T08:23:04;6.25;;;3.75;;
42840;SDS011;28491;46.898;7.660;2023-07-29T08:25:29;4.68;;;3.70;;
42840;SDS011;28491;46.898;7.660;2023-07-29T08:27:55;8.82;;;4.45;;
42840;SDS011;28491;46.898;7.660;2023-07-29T08:30:20;7.30;;;4.20;;
42840;SDS011;28491;46.898;7.660;2023-07-29T08:32:46;5.18;;;3.70;;
42840;SDS011;28491;46.898;7.660;2023-07-29T08:35:12;5.50;;;3.72;;
42840;SDS011;28491;46.898;7.660;2023-07-29T08:37:37;5.65;;;4.07;;
42840;SDS011;28491;46.898;7.660;2023-07-29T08:40:03;5.78;;;3.95;;
42840;SDS011;28491;46.898;7.660;2023-07-29T08:42:31;6.32;;;4.15;;
42840;SDS011;28491;46.898;7.660;2023-07-29T08:44:57;6.10;;;4.13;;
42840;SDS011;28491;46.898;7.660;2023-07-29T08:47:31;9.27;;;3.90;;
42840;SDS011;28491;46.898;7.660;2023-07-29T08:49:56;6.05;;;3.30;;
42840;SDS011;28491;46.898;7.660;2023-07-29T08:52:24;4.68;;;3.42;;
42840;SDS011;28491;46.898;7.660;2023-07-29T08:54:51;5.68;;;4.13;;
42840;SDS011;28491;46.898;7.660;2023-07-29T08:57:17;5.90;;;4.20;;
42840;SDS011;28491;46.898;7.660;2023-07-29T08:59:45;5.68;;;3.78;;
42840;SDS011;28491;46.898;7.660;2023-07-29T09:02:11;5.60;;;3.75;;
42840;SDS011;28491;46.898;7.660;2023-07-29T09:04:36;6.40;;;4.07;;
42840;SDS011;28491;46.898;7.660;2023-07-29T09:07:02;6.22;;;4.07;;
42840;SDS011;28491;46.898;7.660;2023-07-29T09:09:32;6.95;;;4.65;;
42840;SDS011;28491;46.898;7.660;2023-07-29T09:11:57;5.47;;;4.05;;
42840;SDS011;28491;46.898;7.660;2023-07-29T09:14:23;5.93;;;3.78;;
42840;SDS011;28491;46.898;7.660;2023-07-29T09:16:49;4.70;;;3.75;;
42840;SDS011;28491;46.898;7.660;2023-07-29T09:19:14;6.10;;;3.88;;
42840;SDS011;28491;46.898;7.660;2023-07-29T09:21:40;6.15;;;3.42;;
42840;SDS011;28491;46.898;7.660;2023-07-29T09:24:06;7.90;;;3.67;;
42840;SDS011;28491;46.898;7.660;2023-07-29T09:26:32;5.90;;;4.00;;
42840;SDS011;28491;46.898;7.660;2023-07-29T09:28:59;5.70;;;3.55;;
42840;SDS011;28491;46.898;7.660;2023-07-29T09:31:28;4.53;;;3.65;;
42840;SDS011;28491;46.898;7.660;2023-07-29T09:34:00;8.30;;;3.85;;
42840;SDS011;28491;46.898;7.660;2023-07-29T09:36:28;5.68;;;3.75;;
42840;SDS011;28491;46.898;7.660;2023-07-29T09:38:56;5.20;;;3.70;;
42840;SDS011;28491;46.898;7.660;2023-07-29T09:41:26;7.53;;;3.35;;
42840;SDS011;28491;46.898;7.660;2023-07-29T09:43:56;5.97;;;4.10;;
42840;SDS011;28491;46.898;7.660;2023-07-29T09:46:23;5.43;;;3.83;;
42840;SDS011;28491;46.898;7.660;2023-07-29T09:48:52;6.13;;;3.50;;
42840;SDS011;28491;46.898;7.660;2023-07-29T09:51:22;5.90;;;4.05;;
42840;SDS011;28491;46.898;7.660;2023-07-29T09:53:50;6.05;;;3.47;;
42840;SDS011;28491;46.898;7.660;2023-07-29T09:56:17;5.97;;;3.90;;
42840;SDS011;28491;46.898;7.660;2023-07-29T09:58:44;5.75;;;3.67;;
42840;SDS011;28491;46.898;7.660;2023-07-29T10:01:11;6.15;;;3.90;;
42840;SDS011;28491;46.898;7.660;2023-07-29T10:03:37;5.60;;;3.80;;
42840;SDS011;28491;46.898;7.660;2023-07-29T10:06:03;4.82;;;3.15;;
42840;SDS011;28491;46.898;7.660;2023-07-29T10:08:30;5.40;;;3.33;;
42840;SDS011;28491;46.898;7.660;2023-07-29T10:10:59;4.82;;;3.33;;
42840;SDS011;28491;46.898;7.660;2023-07-29T10:13:28;4.22;;;2.88;;
42840;SDS011;28491;46.898;7.660;2023-07-29T10:15:54;5.20;;;2.95;;
42840;SDS011;28491;46.898;7.660;2023-07-29T10:18:23;4.90;;;3.28;;
42840;SDS011;28491;46.898;7.660;2023-07-29T10:20:50;4.63;;;3.40;;
42840;SDS011;28491;46.898;7.660;2023-07-29T10:23:17;6.47;;;3.00;;
42840;SDS011;28491;46.898;7.660;2023-07-29T10:25:46;3.83;;;2.50;;
42840;SDS011;28491;46.898;7.660;2023-07-29T10:28:17;3.95;;;2.63;;
42840;SDS011;28491;46.898;7.660;2023-07-29T10:30:45;4.85;;;2.47;;
42840;SDS011;28491;46.898;7.660;2023-07-29T10:33:11;6.25;;;2.60;;
42840;SDS011;28491;46.898;7.660;2023-07-29T10:39:06;4.60;;;2.78;;
42840;SDS011;28491;46.898;7.660;2023-07-29T10:41:59;4.97;;;2.58;;
42840;SDS011;28491;46.898;7.660;2023-07-29T10:47:42;4.25;;;2.40;;
42840;SDS011;28491;46.898;7.660;2023-07-29T10:50:16;4.32;;;2.70;;
42840;SDS011;28491;46.898;7.660;2023-07-29T10:52:43;4.30;;;2.58;;
42840;SDS011;28491;46.898;7.660;2023-07-29T10:55:23;5.32;;;2.60;;
42840;SDS011;28491;46.898;7.660;2023-07-29T10:58:12;4.45;;;2.58;;
42840;SDS011;28491;46.898;7.660;2023-07-29T11:00:41;4.00;;;2.55;;
42840;SDS011;28491;46.898;7.660;2023-07-29T11:03:11;8.27;;;3.22;;
42840;SDS011;28491;46.898;7.660;2023-07-29T11:08:16;4.57;;;3.20;;
42840;SDS011;28491;46.898;7.660;2023-07-29T11:10:43;4.60;;;3.25;;
42840;SDS011;28491;46.898;7.660;2023-07-29T11:13:12;3.53;;;2.45;;
42840;SDS011;28491;46.898;7.660;2023-07-29T11:15:38;5.55;;;3.30;;
42840;SDS011;28491;46.898;7.660;2023-07-29T11:18:04;4.22;;;2.92;;
42840;SDS011;28491;46.898;7.660;2023-07-29T11:20:32;4.70;;;2.63;;
42840;SDS011;28491;46.898;7.660;2023-07-29T11:22:59;5.25;;;2.85;;
42840;SDS011;28491;46.898;7.660;2023-07-29T11:25:26;6.65;;;3.05;;
42840;SDS011;28491;46.898;7.660;2023-07-29T11:27:57;4.60;;;3.08;;
42840;SDS011;28491;46.898;7.660;2023-07-29T11:30:24;3.95;;;2.75;;
42840;SDS011;28491;46.898;7.660;2023-07-29T11:32:59;4.70;;;3.20;;
42840;SDS011;28491;46.898;7.660;2023-07-29T11:35:25;4.40;;;3.10;;
42840;SDS011;28491;46.898;7.660;2023-07-29T11:37:51;3.75;;;2.67;;
42840;SDS011;28491;46.898;7.660;2023-07-29T11:40:19;4.15;;;2.90;;
42840;SDS011;28491;46.898;7.660;2023-07-29T11:42:52;8.02;;;3.17;;
42840;SDS011;28491;46.898;7.660;2023-07-29T11:47:44;4.70;;;2.92;;
42840;SDS011;28491;46.898;7.660;2023-07-29T11:50:11;4.72;;;2.83;;
42840;SDS011;28491;46.898;7.660;2023-07-29T11:52:45;3.83;;;2.75;;
42840;SDS011;28491;46.898;7.660;2023-07-29T11:55:12;4.90;;;2.90;;
42840;SDS011;28491;46.898;7.660;2023-07-29T11:57:41;3.97;;;2.85;;
42840;SDS011;28491;46.898;7.660;2023-07-29T12:00:09;5.88;;;2.90;;
42840;SDS011;28491;46.898;7.660;2023-07-29T12:02:37;5.18;;;3.10;;
42840;SDS011;28491;46.898;7.660;2023-07-29T12:05:09;4.88;;;3.17;;
42840;SDS011;28491;46.898;7.660;2023-07-29T12:07:49;4.72;;;3.08;;
42840;SDS011;28491;46.898;7.660;2023-07-29T12:10:15;3.72;;;2.60;;
42840;SDS011;28491;46.898;7.660;2023-07-29T12:12:44;3.53;;;2.53;;
42840;SDS011;28491;46.898;7.660;2023-07-29T12:15:11;6.93;;;3.17;;
42840;SDS011;28491;46.898;7.660;2023-07-29T12:17:42;7.00;;;3.17;;
42840;SDS011;28491;46.898;7.660;2023-07-29T12:20:08;4.30;;;2.90;;
42840;SDS011;28491;46.898;7.660;2023-07-29T12:22:35;4.97;;;2.80;;
42840;SDS011;28491;46.898;7.660;2023-07-29T12:25:01;4.70;;;3.03;;
42840;SDS011;28491;46.898;7.660;2023-07-29T12:27:29;3.83;;;2.72;;
42840;SDS011;28491;46.898;7.660;2023-07-29T12:29:56;4.43;;;2.72;;
42840;SDS011;28491;46.898;7.660;2023-07-29T12:32:24;4.85;;;2.97;;
42840;SDS011;28491;46.898;7.660;2023-07-29T12:34:52;3.70;;;2.60;;
42840;SDS011;28491;46.898;7.660;2023-07-29T12:37:30;3.75;;;2.40;;
42840;SDS011;28491;46.898;7.660;2023-07-29T12:39:56;4.38;;;2.05;;
42840;SDS011;28491;46.898;7.660;2023-07-29T12:42:22;3.03;;;2.10;;
42840;SDS011;28491;46.898;7.660;2023-07-29T12:44:47;3.03;;;2.05;;
42840;SDS011;28491;46.898;7.660;2023-07-29T12:47:13;4.00;;;2.33;;
42840;SDS011;28491;46.898;7.660;2023-07-29T12:49:39;3.50;;;1.95;;
42840;SDS011;28491;46.898;7.660;2023-07-29T12:52:04;6.60;;;3.17;;
42840;SDS011;28491;46.898;7.660;2023-07-29T12:54:30;5.65;;;2.67;;
42840;SDS011;28491;46.898;7.660;2023-07-29T12:56:56;3.55;;;1.95;;
42840;SDS011;28491;46.898;7.660;2023-07-29T12:59:21;2.42;;;1.60;;
42840;SDS011;28491;46.898;7.660;2023-07-29T13:01:47;2.58;;;1.67;;
42840;SDS011;28491;46.898;7.660;2023-07-29T13:04:13;4.32;;;2.42;;
42840;SDS011;28491;46.898;7.660;2023-07-29T13:06:38;3.55;;;2.30;;
42840;SDS011;28491;46.898;7.660;2023-07-29T13:09:04;4.20;;;2.10;;
42840;SDS011;28491;46.898;7.660;2023-07-29T13:11:32;3.00;;;2.13;;
42840;SDS011;28491;46.898;7.660;2023-07-29T13:13:58;3.35;;;2.05;;
42840;SDS011;28491;46.898;7.660;2023-07-29T13:16:25;2.88;;;2.03;;
42840;SDS011;28491;46.898;7.660;2023-07-29T13:18:51;4.00;;;2.35;;
42840;SDS011;28491;46.898;7.660;2023-07-29T13:21:17;3.58;;;2.20;;
42840;SDS011;28491;46.898;7.660;2023-07-29T13:23:42;4.03;;;2.60;;
42840;SDS011;28491;46.898;7.660;2023-07-29T13:26:08;4.35;;;2.40;;
42840;SDS011;28491;46.898;7.660;2023-07-29T13:28:51;5.30;;;3.17;;
42840;SDS011;28491;46.898;7.660;2023-07-29T14:49:55;3.97;;;2.97;;
42840;SDS011;28491;46.898;7.660;2023-07-29T14:55:10;3.95;;;2.35;;
42840;SDS011;28491;46.898;7.660;2023-07-29T14:57:35;3.30;;;2.10;;
42840;SDS011;28491;46.898;7.660;2023-07-29T15:00:01;4.28;;;1.80;;
42840;SDS011;28491;46.898;7.660;2023-07-29T15:02:28;3.05;;;2.00;;
42840;SDS011;28491;46.898;7.660;2023-07-29T15:04:54;3.08;;;1.80;;
42840;SDS011;28491;46.898;7.660;2023-07-29T15:07:20;2.80;;;1.90;;
42840;SDS011;28491;46.898;7.660;2023-07-29T15:09:45;2.10;;;1.67;;
42840;SDS011;28491;46.898;7.660;2023-07-29T15:12:11;2.88;;;1.80;;
42840;SDS011;28491;46.898;7.660;2023-07-29T15:14:37;3.55;;;2.00;;
42840;SDS011;28491;46.898;7.660;2023-07-29T15:17:02;4.93;;;2.53;;
42840;SDS011;28491;46.898;7.660;2023-07-29T15:19:28;4.38;;;2.25;;
42840;SDS011;28491;46.898;7.660;2023-07-29T15:21:53;3.97;;;2.05;;
42840;SDS011;28491;46.898;7.660;2023-07-29T15:24:19;2.58;;;1.50;;
42840;SDS011;28491;46.898;7.660;2023-07-29T15:26:45;2.42;;;1.50;;
42840;SDS011;28491;46.898;7.660;2023-07-29T15:29:10;3.80;;;2.17;;
42840;SDS011;28491;46.898;7.660;2023-07-29T15:31:36;3.03;;;1.70;;
42840;SDS011;28491;46.898;7.660;2023-07-29T15:34:02;1.95;;;1.35;;
42840;SDS011;28491;46.898;7.660;2023-07-29T15:36:27;4.80;;;1.85;;
42840;SDS011;28491;46.898;7.660;2023-07-29T15:38:53;4.38;;;2.30;;
42840;SDS011;28491;46.898;7.660;2023-07-29T15:41:18;4.35;;;1.65;;
42840;SDS011;28491;46.898;7.660;2023-07-29T15:43:44;4.63;;;2.30;;
42840;SDS011;28491;46.898;7.660;2023-07-29T15:46:10;3.63;;;1.80;;
42840;SDS011;28491;46.898;7.660;2023-07-29T15:48:35;2.90;;;1.77;;
42840;SDS011;28491;46.898;7.660;2023-07-29T15:51:02;2.35;;;1.63;;
42840;SDS011;28491;46.898;7.660;2023-07-29T15:53:27;4.15;;;2.00;;
42840;SDS011;28491;46.898;7.660;2023-07-29T15:55:53;2.60;;;1.80;;
42840;SDS011;28491;46.898;7.660;2023-07-29T15:58:18;2.88;;;1.88;;
42840;SDS011;28491;46.898;7.660;2023-07-29T16:00:44;4.13;;;1.80;;
42840;SDS011;28491;46.898;7.660;2023-07-29T16:03:10;3.38;;;2.00;;
42840;SDS011;28491;46.898;7.660;2023-07-29T16:05:35;2.47;;;1.48;;
42840;SDS011;28491;46.898;7.660;2023-07-29T16:08:01;4.90;;;2.08;;
42840;SDS011;28491;46.898;7.660;2023-07-29T16:10:26;3.90;;;1.90;;
42840;SDS011;28491;46.898;7.660;2023-07-29T16:12:52;3.25;;;1.70;;
42840;SDS011;28491;46.898;7.660;2023-07-29T16:15:18;2.80;;;1.95;;
42840;SDS011;28491;46.898;7.660;2023-07-29T16:17:43;4.32;;;1.90;;
42840;SDS011;28491;46.898;7.660;2023-07-29T16:20:11;2.70;;;1.95;;
42840;SDS011;28491;46.898;7.660;2023-07-29T16:22:37;3.80;;;2.10;;